sensor_id;sensor_type;location;lat;lon;timestamp;P1;durP1;ratioP1;P2;durP2;ratioP2
74577;SDS011;63173;49.086;33.418;2022-10-04T00:00:24;3.17;;;2.05;;
74577;SDS011;63173;49.086;33.418;2022-10-04T00:03:06;3.42;;;1.40;;
74577;SDS011;63173;49.086;33.418;2022-10-04T00:05:34;4.18;;;1.90;;
74577;SDS011;63173;49.086;33.418;2022-10-04T00:08:12;2.70;;;1.42;;
74577;SDS011;63173;49.086;33.418;2022-10-04T00:10:48;4.38;;;1.33;;
74577;SDS011;63173;49.086;33.418;2022-10-04T00:13:23;2.63;;;1.35;;
74577;SDS011;63173;49.086;33.418;2022-10-04T00:15:50;3.00;;;1.50;;
74577;SDS011;63173;49.086;33.418;2022-10-04T00:18:19;4.40;;;1.75;;
74577;SDS011;63173;49.086;33.418;2022-10-04T00:25:58;2.20;;;1.50;;
74577;SDS011;63173;49.086;33.418;2022-10-04T00:33:48;2.85;;;1.50;;
74577;SDS011;63173;49.086;33.418;2022-10-04T00:44:04;3.40;;;1.90;;
74577;SDS011;63173;49.086;33.418;2022-10-04T00:46:34;2.90;;;1.73;;
74577;SDS011;63173;49.086;33.418;2022-10-04T00:49:05;2.50;;;1.70;;
74577;SDS011;63173;49.086;33.418;2022-10-04T00:54:17;6.35;;;2.30;;
74577;SDS011;63173;49.086;33.418;2022-10-04T00:57:03;3.25;;;1.92;;
74577;SDS011;63173;49.086;33.418;2022-10-04T00:59:34;4.70;;;1.90;;
74577;SDS011;63173;49.086;33.418;2022-10-04T01:02:05;3.15;;;2.15;;
74577;SDS011;63173;49.086;33.418;2022-10-04T01:04:54;4.72;;;2.15;;
74577;SDS011;63173;49.086;33.418;2022-10-04T01:07:37;3.45;;;2.13;;
74577;SDS011;63173;49.086;33.418;2022-10-04T01:10:21;3.58;;;2.13;;
74577;SDS011;63173;49.086;33.418;2022-10-04T01:20:33;6.35;;;2.65;;
74577;SDS011;63173;49.086;33.418;2022-10-04T01:23:02;4.35;;;2.60;;
74577;SDS011;63173;49.086;33.418;2022-10-04T01:28:10;3.55;;;2.20;;
74577;SDS011;63173;49.086;33.418;2022-10-04T01:30:36;4.70;;;2.00;;
74577;SDS011;63173;49.086;33.418;2022-10-04T01:33:01;3.78;;;2.40;;
74577;SDS011;63173;49.086;33.418;2022-10-04T01:35:27;3.28;;;2.03;;
74577;SDS011;63173;49.086;33.418;2022-10-04T01:37:53;5.22;;;1.98;;
74577;SDS011;63173;49.086;33.418;2022-10-04T01:40:19;5.63;;;2.20;;
74577;SDS011;63173;49.086;33.418;2022-10-04T01:42:46;5.22;;;2.00;;
74577;SDS011;63173;49.086;33.418;2022-10-04T01:45:27;3.75;;;2.15;;
74577;SDS011;63173;49.086;33.418;2022-10-04T01:47:58;4.72;;;1.67;;
74577;SDS011;63173;49.086;33.418;2022-10-04T01:53:00;2.60;;;1.40;;
74577;SDS011;63173;49.086;33.418;2022-10-04T01:55:31;2.10;;;1.40;;
74577;SDS011;63173;49.086;33.418;2022-10-04T01:58:01;3.28;;;1.40;;
74577;SDS011;63173;49.086;33.418;2022-10-04T02:00:33;2.85;;;1.38;;
74577;SDS011;63173;49.086;33.418;2022-10-04T02:03:27;2.47;;;1.60;;
74577;SDS011;63173;49.086;33.418;2022-10-04T02:05:55;1.70;;;1.13;;
74577;SDS011;63173;49.086;33.418;2022-10-04T02:08:29;1.98;;;1.33;;
74577;SDS011;63173;49.086;33.418;2022-10-04T02:10:57;3.38;;;1.35;;
74577;SDS011;63173;49.086;33.418;2022-10-04T02:13:25;5.50;;;1.20;;
74577;SDS011;63173;49.086;33.418;2022-10-04T02:15:54;4.40;;;1.30;;
74577;SDS011;63173;49.086;33.418;2022-10-04T02:18:20;2.10;;;0.75;;
74577;SDS011;63173;49.086;33.418;2022-10-04T02:20:48;1.00;;;0.80;;
74577;SDS011;63173;49.086;33.418;2022-10-04T02:23:15;1.30;;;0.70;;
74577;SDS011;63173;49.086;33.418;2022-10-04T02:28:08;0.90;;;0.60;;
74577;SDS011;63173;49.086;33.418;2022-10-04T02:33:03;0.75;;;0.60;;
74577;SDS011;63173;49.086;33.418;2022-10-04T02:35:32;0.90;;;0.70;;
74577;SDS011;63173;49.086;33.418;2022-10-04T02:46:06;0.70;;;0.60;;
74577;SDS011;63173;49.086;33.418;2022-10-04T02:51:30;2.70;;;0.50;;
74577;SDS011;63173;49.086;33.418;2022-10-04T02:54:04;0.82;;;0.50;;
74577;SDS011;63173;49.086;33.418;2022-10-04T02:56:40;1.75;;;0.50;;
74577;SDS011;63173;49.086;33.418;2022-10-04T02:59:06;4.03;;;0.60;;
74577;SDS011;63173;49.086;33.418;2022-10-04T03:01:38;1.85;;;0.70;;
74577;SDS011;63173;49.086;33.418;2022-10-04T03:04:16;0.60;;;0.40;;
74577;SDS011;63173;49.086;33.418;2022-10-04T03:06:45;2.97;;;0.60;;
74577;SDS011;63173;49.086;33.418;2022-10-04T03:09:11;2.92;;;0.70;;
74577;SDS011;63173;49.086;33.418;2022-10-04T03:11:38;0.85;;;0.50;;
74577;SDS011;63173;49.086;33.418;2022-10-04T03:14:07;0.85;;;0.50;;
74577;SDS011;63173;49.086;33.418;2022-10-04T03:16:38;1.30;;;0.68;;
74577;SDS011;63173;49.086;33.418;2022-10-04T03:19:07;1.73;;;0.90;;
74577;SDS011;63173;49.086;33.418;2022-10-04T03:21:34;1.60;;;0.80;;
74577;SDS011;63173;49.086;33.418;2022-10-04T03:24:03;1.10;;;0.60;;
74577;SDS011;63173;49.086;33.418;2022-10-04T03:26:42;0.82;;;0.60;;
74577;SDS011;63173;49.086;33.418;2022-10-04T03:29:11;1.38;;;0.70;;
74577;SDS011;63173;49.086;33.418;2022-10-04T03:31:42;0.90;;;0.60;;
74577;SDS011;63173;49.086;33.418;2022-10-04T03:34:14;1.13;;;0.70;;
74577;SDS011;63173;49.086;33.418;2022-10-04T03:36:42;1.25;;;0.60;;
74577;SDS011;63173;49.086;33.418;2022-10-04T03:39:10;2.63;;;0.65;;
74577;SDS011;63173;49.086;33.418;2022-10-04T03:41:39;1.58;;;0.70;;
74577;SDS011;63173;49.086;33.418;2022-10-04T03:44:06;4.90;;;0.80;;
74577;SDS011;63173;49.086;33.418;2022-10-04T03:46:39;1.08;;;0.68;;
74577;SDS011;63173;49.086;33.418;2022-10-04T03:49:05;1.30;;;0.40;;
74577;SDS011;63173;49.086;33.418;2022-10-04T03:51:32;1.88;;;0.68;;
74577;SDS011;63173;49.086;33.418;2022-10-04T03:53:59;1.85;;;0.80;;
74577;SDS011;63173;49.086;33.418;2022-10-04T03:56:30;1.67;;;0.70;;
74577;SDS011;63173;49.086;33.418;2022-10-04T03:58:57;0.90;;;0.60;;
74577;SDS011;63173;49.086;33.418;2022-10-04T04:01:32;1.35;;;0.80;;
74577;SDS011;63173;49.086;33.418;2022-10-04T04:09:19;1.10;;;0.70;;
74577;SDS011;63173;49.086;33.418;2022-10-04T04:11:49;2.63;;;0.80;;
74577;SDS011;63173;49.086;33.418;2022-10-04T04:14:19;0.65;;;0.60;;
74577;SDS011;63173;49.086;33.418;2022-10-04T04:16:49;2.33;;;0.80;;
74577;SDS011;63173;49.086;33.418;2022-10-04T04:19:16;3.58;;;0.90;;
74577;SDS011;63173;49.086;33.418;2022-10-04T04:21:46;1.50;;;0.80;;
74577;SDS011;63173;49.086;33.418;2022-10-04T04:24:23;5.40;;;0.77;;
74577;SDS011;63173;49.086;33.418;2022-10-04T04:26:55;0.80;;;0.60;;
74577;SDS011;63173;49.086;33.418;2022-10-04T04:29:25;0.90;;;0.60;;
74577;SDS011;63173;49.086;33.418;2022-10-04T04:32:01;0.98;;;0.70;;
74577;SDS011;63173;49.086;33.418;2022-10-04T04:34:33;1.00;;;0.75;;
74577;SDS011;63173;49.086;33.418;2022-10-04T04:37:08;3.53;;;0.70;;
74577;SDS011;63173;49.086;33.418;2022-10-04T04:39:34;3.08;;;0.80;;
74577;SDS011;63173;49.086;33.418;2022-10-04T04:42:16;1.48;;;0.90;;
74577;SDS011;63173;49.086;33.418;2022-10-04T04:44:46;1.13;;;0.70;;
74577;SDS011;63173;49.086;33.418;2022-10-04T04:47:20;1.70;;;0.85;;
74577;SDS011;63173;49.086;33.418;2022-10-04T04:49:49;0.98;;;0.70;;
74577;SDS011;63173;49.086;33.418;2022-10-04T04:52:15;1.85;;;1.13;;
74577;SDS011;63173;49.086;33.418;2022-10-04T04:54:45;2.03;;;0.77;;
74577;SDS011;63173;49.086;33.418;2022-10-04T04:57:13;1.70;;;0.80;;
74577;SDS011;63173;49.086;33.418;2022-10-04T04:59:42;1.15;;;0.60;;
74577;SDS011;63173;49.086;33.418;2022-10-04T05:02:25;3.25;;;1.27;;
74577;SDS011;63173;49.086;33.418;2022-10-04T05:07:45;2.08;;;0.90;;
74577;SDS011;63173;49.086;33.418;2022-10-04T05:12:51;0.98;;;0.73;;
74577;SDS011;63173;49.086;33.418;2022-10-04T05:15:17;1.58;;;1.00;;
74577;SDS011;63173;49.086;33.418;2022-10-04T05:17:43;0.90;;;0.68;;
74577;SDS011;63173;49.086;33.418;2022-10-04T05:20:09;1.20;;;0.70;;
74577;SDS011;63173;49.086;33.418;2022-10-04T05:22:37;2.17;;;0.68;;
74577;SDS011;63173;49.086;33.418;2022-10-04T05:25:13;6.82;;;0.70;;
74577;SDS011;63173;49.086;33.418;2022-10-04T05:27:48;0.90;;;0.50;;
74577;SDS011;63173;49.086;33.418;2022-10-04T05:33:23;1.00;;;0.70;;
74577;SDS011;63173;49.086;33.418;2022-10-04T05:43:52;0.50;;;0.43;;
74577;SDS011;63173;49.086;33.418;2022-10-04T05:46:20;1.10;;;0.75;;
74577;SDS011;63173;49.086;33.418;2022-10-04T05:48:58;2.45;;;0.60;;
74577;SDS011;63173;49.086;33.418;2022-10-04T05:51:32;0.90;;;0.70;;
74577;SDS011;63173;49.086;33.418;2022-10-04T05:54:02;1.00;;;0.77;;
74577;SDS011;63173;49.086;33.418;2022-10-04T06:05:11;2.72;;;0.80;;
74577;SDS011;63173;49.086;33.418;2022-10-04T06:10:41;2.13;;;0.75;;
74577;SDS011;63173;49.086;33.418;2022-10-04T06:16:14;1.80;;;0.60;;
74577;SDS011;63173;49.086;33.418;2022-10-04T06:24:20;1.27;;;0.88;;
74577;SDS011;63173;49.086;33.418;2022-10-04T06:26:59;1.33;;;0.73;;
74577;SDS011;63173;49.086;33.418;2022-10-04T06:29:34;1.63;;;0.80;;
74577;SDS011;63173;49.086;33.418;2022-10-04T07:02:45;3.83;;;0.90;;
74577;SDS011;63173;49.086;33.418;2022-10-04T07:05:31;1.40;;;0.88;;
74577;SDS011;63173;49.086;33.418;2022-10-04T07:08:04;1.73;;;0.82;;
74577;SDS011;63173;49.086;33.418;2022-10-04T07:10:44;2.15;;;0.82;;
74577;SDS011;63173;49.086;33.418;2022-10-04T07:13:29;1.00;;;0.80;;
74577;SDS011;63173;49.086;33.418;2022-10-04T07:16:24;1.70;;;0.80;;
74577;SDS011;63173;49.086;33.418;2022-10-04T07:21:44;1.13;;;0.70;;
74577;SDS011;63173;49.086;33.418;2022-10-04T07:24:35;1.20;;;0.65;;
74577;SDS011;63173;49.086;33.418;2022-10-04T07:27:11;1.83;;;0.80;;
74577;SDS011;63173;49.086;33.418;2022-10-04T07:29:40;3.60;;;1.00;;
74577;SDS011;63173;49.086;33.418;2022-10-04T07:32:12;1.88;;;0.90;;
74577;SDS011;63173;49.086;33.418;2022-10-04T07:34:58;1.77;;;1.00;;
74577;SDS011;63173;49.086;33.418;2022-10-04T07:37:30;3.92;;;0.98;;
74577;SDS011;63173;49.086;33.418;2022-10-04T07:42:36;2.70;;;1.02;;
74577;SDS011;63173;49.086;33.418;2022-10-04T07:51:01;2.22;;;0.95;;
74577;SDS011;63173;49.086;33.418;2022-10-04T07:53:52;6.13;;;1.10;;
74577;SDS011;63173;49.086;33.418;2022-10-04T07:56:27;1.35;;;0.70;;
74577;SDS011;63173;49.086;33.418;2022-10-04T08:07:15;2.35;;;1.20;;
74577;SDS011;63173;49.086;33.418;2022-10-04T08:12:30;3.05;;;1.30;;
74577;SDS011;63173;49.086;33.418;2022-10-04T08:21:00;2.67;;;1.17;;
74577;SDS011;63173;49.086;33.418;2022-10-04T08:23:34;1.27;;;0.82;;
74577;SDS011;63173;49.086;33.418;2022-10-04T08:34:23;3.17;;;0.93;;
74577;SDS011;63173;49.086;33.418;2022-10-04T08:54:27;3.60;;;1.23;;
74577;SDS011;63173;49.086;33.418;2022-10-04T09:10:33;2.15;;;1.20;;
74577;SDS011;63173;49.086;33.418;2022-10-04T09:27:13;5.68;;;1.27;;
74577;SDS011;63173;49.086;33.418;2022-10-04T09:46:36;1.85;;;1.10;;
74577;SDS011;63173;49.086;33.418;2022-10-04T09:55:08;2.67;;;1.30;;
74577;SDS011;63173;49.086;33.418;2022-10-04T10:33:59;1.42;;;0.60;;
74577;SDS011;63173;49.086;33.418;2022-10-04T10:53:34;1.20;;;0.77;;
74577;SDS011;63173;49.086;33.418;2022-10-04T10:56:29;3.45;;;0.93;;
74577;SDS011;63173;49.086;33.418;2022-10-04T11:21:39;1.58;;;0.88;;
74577;SDS011;63173;49.086;33.418;2022-10-04T11:30:23;0.80;;;0.40;;
74577;SDS011;63173;49.086;33.418;2022-10-04T11:46:40;0.47;;;0.40;;
74577;SDS011;63173;49.086;33.418;2022-10-04T11:49:32;1.02;;;0.65;;
74577;SDS011;63173;49.086;33.418;2022-10-04T12:00:16;1.33;;;0.60;;
74577;SDS011;63173;49.086;33.418;2022-10-04T12:11:33;3.22;;;0.93;;
74577;SDS011;63173;49.086;33.418;2022-10-04T12:31:06;1.73;;;1.00;;
74577;SDS011;63173;49.086;33.418;2022-10-04T12:33:35;2.08;;;0.75;;
74577;SDS011;63173;49.086;33.418;2022-10-04T12:42:01;1.83;;;0.40;;
74577;SDS011;63173;49.086;33.418;2022-10-04T12:52:26;1.65;;;0.80;;
74577;SDS011;63173;49.086;33.418;2022-10-04T13:00:24;2.75;;;0.80;;
74577;SDS011;63173;49.086;33.418;2022-10-04T13:03:03;2.08;;;1.13;;
74577;SDS011;63173;49.086;33.418;2022-10-04T13:16:56;1.15;;;0.60;;
74577;SDS011;63173;49.086;33.418;2022-10-04T13:19:36;1.50;;;0.85;;
74577;SDS011;63173;49.086;33.418;2022-10-04T13:49:22;2.92;;;1.33;;
74577;SDS011;63173;49.086;33.418;2022-10-04T14:06:57;1.85;;;1.00;;
74577;SDS011;63173;49.086;33.418;2022-10-04T14:43:34;5.50;;;1.20;;
74577;SDS011;63173;49.086;33.418;2022-10-04T14:57:56;3.13;;;1.40;;
74577;SDS011;63173;49.086;33.418;2022-10-04T15:00:29;1.98;;;1.20;;
74577;SDS011;63173;49.086;33.418;2022-10-04T15:03:29;5.95;;;2.22;;
74577;SDS011;63173;49.086;33.418;2022-10-04T15:06:17;4.97;;;1.95;;
74577;SDS011;63173;49.086;33.418;2022-10-04T15:09:50;3.03;;;1.50;;
74577;SDS011;63173;49.086;33.418;2022-10-04T15:23:28;4.82;;;1.50;;
74577;SDS011;63173;49.086;33.418;2022-10-04T15:42:38;2.38;;;1.42;;
74577;SDS011;63173;49.086;33.418;2022-10-04T15:45:36;2.70;;;1.60;;
74577;SDS011;63173;49.086;33.418;2022-10-04T15:51:38;4.80;;;2.08;;
74577;SDS011;63173;49.086;33.418;2022-10-04T16:00:11;2.30;;;1.45;;
74577;SDS011;63173;49.086;33.418;2022-10-04T16:13:43;2.35;;;1.63;;
74577;SDS011;63173;49.086;33.418;2022-10-04T16:18:43;4.43;;;1.50;;
74577;SDS011;63173;49.086;33.418;2022-10-04T16:31:58;3.50;;;1.52;;
74577;SDS011;63173;49.086;33.418;2022-10-04T16:42:51;4.63;;;1.90;;
74577;SDS011;63173;49.086;33.418;2022-10-04T16:48:36;3.80;;;1.88;;
74577;SDS011;63173;49.086;33.418;2022-10-04T16:56:32;3.10;;;1.70;;
74577;SDS011;63173;49.086;33.418;2022-10-04T17:07:30;7.78;;;1.83;;
74577;SDS011;63173;49.086;33.418;2022-10-04T17:12:59;3.80;;;1.90;;
74577;SDS011;63173;49.086;33.418;2022-10-04T17:15:42;9.55;;;2.28;;
74577;SDS011;63173;49.086;33.418;2022-10-04T17:20:52;3.00;;;2.00;;
74577;SDS011;63173;49.086;33.418;2022-10-04T17:29:47;4.80;;;1.80;;
74577;SDS011;63173;49.086;33.418;2022-10-04T17:46:27;4.05;;;2.28;;
74577;SDS011;63173;49.086;33.418;2022-10-04T17:49:04;5.45;;;2.20;;
74577;SDS011;63173;49.086;33.418;2022-10-04T17:52:02;6.13;;;2.53;;
74577;SDS011;63173;49.086;33.418;2022-10-04T17:54:49;6.20;;;2.25;;
74577;SDS011;63173;49.086;33.418;2022-10-04T17:57:53;6.95;;;2.20;;
74577;SDS011;63173;49.086;33.418;2022-10-04T18:00:24;7.97;;;2.20;;
74577;SDS011;63173;49.086;33.418;2022-10-04T18:03:01;4.18;;;2.08;;
74577;SDS011;63173;49.086;33.418;2022-10-04T18:11:22;6.88;;;2.20;;
74577;SDS011;63173;49.086;33.418;2022-10-04T18:14:04;4.18;;;2.10;;
74577;SDS011;63173;49.086;33.418;2022-10-04T18:19:36;5.60;;;2.05;;
74577;SDS011;63173;49.086;33.418;2022-10-04T18:22:07;5.68;;;2.33;;
74577;SDS011;63173;49.086;33.418;2022-10-04T18:24:38;3.47;;;2.05;;
74577;SDS011;63173;49.086;33.418;2022-10-04T18:27:13;12.15;;;2.03;;
74577;SDS011;63173;49.086;33.418;2022-10-04T18:29:42;9.88;;;2.42;;
74577;SDS011;63173;49.086;33.418;2022-10-04T18:34:53;4.77;;;2.20;;
74577;SDS011;63173;49.086;33.418;2022-10-04T18:37:27;4.50;;;2.17;;
74577;SDS011;63173;49.086;33.418;2022-10-04T18:42:40;4.85;;;2.05;;
74577;SDS011;63173;49.086;33.418;2022-10-04T18:45:20;4.75;;;1.98;;
74577;SDS011;63173;49.086;33.418;2022-10-04T18:47:47;4.55;;;1.90;;
74577;SDS011;63173;49.086;33.418;2022-10-04T18:50:31;3.42;;;1.83;;
74577;SDS011;63173;49.086;33.418;2022-10-04T18:55:59;4.38;;;1.50;;
74577;SDS011;63173;49.086;33.418;2022-10-04T19:09:34;2.40;;;1.70;;
74577;SDS011;63173;49.086;33.418;2022-10-04T19:12:16;6.38;;;1.80;;
74577;SDS011;63173;49.086;33.418;2022-10-04T19:14:54;4.05;;;1.80;;
74577;SDS011;63173;49.086;33.418;2022-10-04T19:25:44;4.75;;;2.00;;
74577;SDS011;63173;49.086;33.418;2022-10-04T19:30:49;3.95;;;1.85;;
74577;SDS011;63173;49.086;33.418;2022-10-04T19:43:53;6.45;;;2.05;;
74577;SDS011;63173;49.086;33.418;2022-10-04T19:46:41;4.50;;;2.30;;
74577;SDS011;63173;49.086;33.418;2022-10-04T19:49:19;11.05;;;2.42;;
74577;SDS011;63173;49.086;33.418;2022-10-04T19:52:36;3.60;;;1.65;;
74577;SDS011;63173;49.086;33.418;2022-10-04T19:57:45;3.28;;;2.15;;
74577;SDS011;63173;49.086;33.418;2022-10-04T20:00:15;7.43;;;2.25;;
74577;SDS011;63173;49.086;33.418;2022-10-04T20:02:44;6.03;;;1.92;;
74577;SDS011;63173;49.086;33.418;2022-10-04T20:05:13;5.20;;;2.30;;
74577;SDS011;63173;49.086;33.418;2022-10-04T20:07:40;2.60;;;1.75;;
74577;SDS011;63173;49.086;33.418;2022-10-04T20:10:26;7.35;;;1.98;;
74577;SDS011;63173;49.086;33.418;2022-10-04T20:18:00;4.60;;;2.00;;
74577;SDS011;63173;49.086;33.418;2022-10-04T20:23:07;3.38;;;1.83;;
74577;SDS011;63173;49.086;33.418;2022-10-04T20:28:09;4.68;;;1.90;;
74577;SDS011;63173;49.086;33.418;2022-10-04T20:30:48;2.92;;;2.00;;
74577;SDS011;63173;49.086;33.418;2022-10-04T20:38:50;3.78;;;1.80;;
74577;SDS011;63173;49.086;33.418;2022-10-04T20:46:21;4.35;;;1.92;;
74577;SDS011;63173;49.086;33.418;2022-10-04T20:48:48;5.78;;;2.08;;
74577;SDS011;63173;49.086;33.418;2022-10-04T20:51:15;7.13;;;2.17;;
74577;SDS011;63173;49.086;33.418;2022-10-04T20:56:30;3.13;;;1.83;;
74577;SDS011;63173;49.086;33.418;2022-10-04T21:01:27;3.05;;;1.92;;
74577;SDS011;63173;49.086;33.418;2022-10-04T21:04:21;3.92;;;1.90;;
74577;SDS011;63173;49.086;33.418;2022-10-04T21:07:11;2.67;;;1.75;;
74577;SDS011;63173;49.086;33.418;2022-10-04T21:09:41;3.00;;;1.98;;
74577;SDS011;63173;49.086;33.418;2022-10-04T21:12:26;2.85;;;1.85;;
74577;SDS011;63173;49.086;33.418;2022-10-04T21:23:47;2.65;;;1.85;;
74577;SDS011;63173;49.086;33.418;2022-10-04T21:26:53;2.78;;;1.80;;
74577;SDS011;63173;49.086;33.418;2022-10-04T21:28:51;2.85;;;1.83;;
74577;SDS011;63173;49.086;33.418;2022-10-04T21:31:18;3.65;;;2.00;;
74577;SDS011;63173;49.086;33.418;2022-10-04T21:33:43;3.10;;;2.03;;
74577;SDS011;63173;49.086;33.418;2022-10-04T21:36:08;4.50;;;1.88;;
74577;SDS011;63173;49.086;33.418;2022-10-04T21:38:34;3.20;;;1.75;;
74577;SDS011;63173;49.086;33.418;2022-10-04T21:41:00;3.45;;;1.80;;
74577;SDS011;63173;49.086;33.418;2022-10-04T21:43:25;6.00;;;1.83;;
74577;SDS011;63173;49.086;33.418;2022-10-04T21:45:51;4.45;;;1.88;;
74577;SDS011;63173;49.086;33.418;2022-10-04T21:48:16;2.78;;;1.90;;
74577;SDS011;63173;49.086;33.418;2022-10-04T21:50:45;3.42;;;1.77;;
74577;SDS011;63173;49.086;33.418;2022-10-04T21:53:11;4.03;;;1.90;;
74577;SDS011;63173;49.086;33.418;2022-10-04T21:55:37;3.17;;;1.85;;
74577;SDS011;63173;49.086;33.418;2022-10-04T21:58:03;3.13;;;1.85;;
74577;SDS011;63173;49.086;33.418;2022-10-04T22:00:28;4.68;;;1.92;;
74577;SDS011;63173;49.086;33.418;2022-10-04T22:02:53;3.42;;;2.00;;
74577;SDS011;63173;49.086;33.418;2022-10-04T22:05:19;4.18;;;2.00;;
74577;SDS011;63173;49.086;33.418;2022-10-04T22:07:44;3.35;;;2.00;;
74577;SDS011;63173;49.086;33.418;2022-10-04T22:10:09;3.35;;;2.00;;
74577;SDS011;63173;49.086;33.418;2022-10-04T22:12:35;2.90;;;2.13;;
74577;SDS011;63173;49.086;33.418;2022-10-04T22:15:00;3.88;;;2.05;;
74577;SDS011;63173;49.086;33.418;2022-10-04T22:17:26;5.38;;;2.40;;
74577;SDS011;63173;49.086;33.418;2022-10-04T22:19:51;4.68;;;1.88;;
74577;SDS011;63173;49.086;33.418;2022-10-04T22:22:17;4.35;;;1.98;;
74577;SDS011;63173;49.086;33.418;2022-10-04T22:24:43;4.30;;;2.30;;
74577;SDS011;63173;49.086;33.418;2022-10-04T22:27:12;6.70;;;2.40;;
74577;SDS011;63173;49.086;33.418;2022-10-04T22:29:39;5.15;;;2.33;;
74577;SDS011;63173;49.086;33.418;2022-10-04T22:32:09;6.65;;;2.47;;
74577;SDS011;63173;49.086;33.418;2022-10-04T22:34:50;3.50;;;2.20;;
74577;SDS011;63173;49.086;33.418;2022-10-04T22:37:22;4.30;;;2.75;;
74577;SDS011;63173;49.086;33.418;2022-10-04T22:39:49;4.35;;;2.10;;
74577;SDS011;63173;49.086;33.418;2022-10-04T22:42:16;3.70;;;2.17;;
74577;SDS011;63173;49.086;33.418;2022-10-04T22:44:41;3.70;;;2.65;;
74577;SDS011;63173;49.086;33.418;2022-10-04T22:47:11;4.85;;;2.45;;
74577;SDS011;63173;49.086;33.418;2022-10-04T22:49:38;3.28;;;2.03;;
74577;SDS011;63173;49.086;33.418;2022-10-04T22:52:14;3.08;;;2.05;;
74577;SDS011;63173;49.086;33.418;2022-10-04T22:54:43;4.45;;;2.00;;
74577;SDS011;63173;49.086;33.418;2022-10-04T22:59:39;3.95;;;2.20;;
74577;SDS011;63173;49.086;33.418;2022-10-04T23:04:42;3.42;;;2.22;;
74577;SDS011;63173;49.086;33.418;2022-10-04T23:07:09;5.78;;;1.85;;
74577;SDS011;63173;49.086;33.418;2022-10-04T23:09:35;4.03;;;2.08;;
74577;SDS011;63173;49.086;33.418;2022-10-04T23:12:00;5.00;;;2.22;;
74577;SDS011;63173;49.086;33.418;2022-10-04T23:14:26;8.57;;;2.25;;
74577;SDS011;63173;49.086;33.418;2022-10-04T23:16:51;6.05;;;2.35;;
74577;SDS011;63173;49.086;33.418;2022-10-04T23:19:17;5.53;;;2.40;;
74577;SDS011;63173;49.086;33.418;2022-10-04T23:21:45;4.63;;;2.60;;
74577;SDS011;63173;49.086;33.418;2022-10-04T23:24:15;5.50;;;2.33;;
74577;SDS011;63173;49.086;33.418;2022-10-04T23:26:45;4.22;;;2.40;;
74577;SDS011;63173;49.086;33.418;2022-10-04T23:31:43;5.90;;;2.50;;
74577;SDS011;63173;49.086;33.418;2022-10-04T23:34:18;3.92;;;2.40;;
74577;SDS011;63173;49.086;33.418;2022-10-04T23:36:48;7.55;;;2.63;;
74577;SDS011;63173;49.086;33.418;2022-10-04T23:39:20;3.58;;;2.35;;
74577;SDS011;63173;49.086;33.418;2022-10-04T23:41:49;5.13;;;2.50;;
74577;SDS011;63173;49.086;33.418;2022-10-04T23:44:16;3.75;;;2.45;;
74577;SDS011;63173;49.086;33.418;2022-10-04T23:46:42;4.78;;;2.80;;
74577;SDS011;63173;49.086;33.418;2022-10-04T23:49:12;3.53;;;2.33;;
74577;SDS011;63173;49.086;33.418;2022-10-04T23:51:39;3.95;;;2.38;;
74577;SDS011;63173;49.086;33.418;2022-10-04T23:54:09;4.18;;;2.50;;
74577;SDS011;63173;49.086;33.418;2022-10-04T23:56:38;4.57;;;2.50;;
74577;SDS011;63173;49.086;33.418;2022-10-04T23:59:07;3.83;;;2.03;;
